Time;durP1;ratioP1;P1;durP2;ratioP2;P2;SDS_P1;SDS_P2;PMS_P1;PMS_P2;Temp;Humidity;BMP_temperature;BMP_pressure;BME280_temperature;BME280_humidity;BME280_pressure;Samples;Min_cycle;Max_cycle;Signal;HPM_P1;HPM_P2
2021/01/05 00:00:47;;;;;;;8.93;8.02;;;3.40;94.60;;;;;;4996501;28;20513;-44
2021/01/05 00:03:13;;;;;;;9.23;8.23;;;3.40;94.70;;;;;;4988892;28;20062;-43
2021/01/05 00:05:38;;;;;;;9.27;8.00;;;3.40;94.70;;;;;;4988391;28;20030;-43
2021/01/05 00:08:04;;;;;;;9.63;8.40;;;3.40;94.70;;;;;;4988771;28;20049;-44
2021/01/05 00:10:30;;;;;;;8.50;7.55;;;3.40;94.70;;;;;;4991431;28;20058;-43
2021/01/05 00:12:55;;;;;;;9.85;8.10;;;3.40;94.80;;;;;;4996268;28;20141;-43
2021/01/05 00:15:21;;;;;;;10.05;8.40;;;3.40;94.80;;;;;;4997215;28;20027;-43
2021/01/05 00:17:46;;;;;;;10.18;9.02;;;3.40;94.80;;;;;;4992834;28;20474;-44
2021/01/05 00:20:21;;;;;;;9.15;7.95;;;3.40;94.70;;;;;;5006852;28;20037;-43
2021/01/05 00:22:47;;;;;;;11.80;9.05;;;3.50;94.70;;;;;;4988812;28;20066;-44
2021/01/05 00:25:14;;;;;;;11.23;9.38;;;3.40;94.70;;;;;;4990132;28;20027;-43
2021/01/05 00:27:40;;;;;;;11.70;9.18;;;3.40;94.70;;;;;;5001286;28;20027;-43
2021/01/05 00:30:18;;;;;;;11.82;9.60;;;3.40;94.70;;;;;;5000135;28;20089;-43
2021/01/05 00:32:45;;;;;;;13.52;10.15;;;3.40;94.70;;;;;;5003874;28;20657;-43
2021/01/05 00:35:14;;;;;;;11.93;9.75;;;3.40;94.70;;;;;;4995850;28;20037;-42
2021/01/05 00:37:39;;;;;;;12.85;9.80;;;3.40;94.60;;;;;;4988030;28;20092;-43
2021/01/05 00:40:07;;;;;;;10.77;8.60;;;3.40;94.70;;;;;;4988056;28;20465;-43
2021/01/05 00:42:32;;;;;;;11.18;9.50;;;3.40;94.70;;;;;;4997525;28;20175;-42
2021/01/05 00:44:58;;;;;;;14.45;10.23;;;3.40;94.80;;;;;;5004190;28;20107;-43
2021/01/05 00:47:23;;;;;;;12.75;9.77;;;3.40;94.70;;;;;;4994427;28;20097;-43
2021/01/05 00:49:49;;;;;;;21.20;12.82;;;3.40;94.70;;;;;;4992256;28;20084;-43
2021/01/05 00:52:14;;;;;;;12.52;9.38;;;3.40;94.70;;;;;;5006966;28;20041;-43
2021/01/05 00:54:40;;;;;;;11.25;9.07;;;3.40;94.70;;;;;;5001774;28;20068;-43
2021/01/05 00:57:08;;;;;;;9.65;8.32;;;3.40;95.00;;;;;;4988902;28;20049;-43
2021/01/05 00:59:34;;;;;;;11.65;9.13;;;3.40;94.70;;;;;;4991958;28;20052;-43
2021/01/05 01:02:00;;;;;;;14.02;10.93;;;3.40;95.00;;;;;;4998864;28;20036;-43
2021/01/05 01:04:26;;;;;;;11.45;9.15;;;3.40;94.80;;;;;;4997479;28;20129;-42
2021/01/05 01:06:52;;;;;;;13.65;10.23;;;3.40;94.70;;;;;;4987666;28;20026;-44
2021/01/05 01:09:18;;;;;;;11.60;9.00;;;3.50;94.70;;;;;;4987790;28;20041;-44
2021/01/05 01:12:24;;;;;;;13.57;10.43;;;3.40;94.60;;;;;;4996059;28;20022;-43
2021/01/05 01:14:54;;;;;;;12.90;9.70;;;3.40;94.70;;;;;;4987820;28;20044;-44
2021/01/05 01:17:22;;;;;;;13.18;10.20;;;3.40;94.70;;;;;;4987057;28;20669;-43
2021/01/05 01:19:48;;;;;;;14.60;10.57;;;3.40;94.80;;;;;;4987813;28;20032;-43
2021/01/05 01:22:17;;;;;;;12.48;9.27;;;3.40;94.70;;;;;;4986626;28;20034;-43
2021/01/05 01:24:42;;;;;;;14.02;10.45;;;3.40;94.70;;;;;;4987877;28;20037;-43
2021/01/05 01:27:08;;;;;;;9.75;8.75;;;3.40;94.70;;;;;;4987291;28;20394;-42
2021/01/05 01:29:33;;;;;;;12.00;8.73;;;3.40;94.70;;;;;;4986221;28;20084;-43
2021/01/05 01:31:59;;;;;;;13.07;9.85;;;3.40;94.80;;;;;;4987697;28;20049;-43
2021/01/05 01:34:26;;;;;;;13.05;10.68;;;3.40;94.80;;;;;;4986768;28;20125;-44
2021/01/05 01:37:03;;;;;;;14.93;11.23;;;3.40;94.70;;;;;;4986330;28;20026;-43
2021/01/05 01:39:30;;;;;;;14.60;10.90;;;3.40;94.70;;;;;;4988152;28;20038;-42
2021/01/05 01:41:59;;;;;;;12.98;9.80;;;3.40;94.70;;;;;;4997254;28;20022;-43
2021/01/05 01:44:28;;;;;;;14.35;10.30;;;3.40;94.70;;;;;;4999345;28;20040;-43
2021/01/05 01:46:58;;;;;;;13.10;10.25;;;3.40;94.70;;;;;;4989480;28;20046;-43
2021/01/05 01:49:23;;;;;;;13.38;10.10;;;3.40;94.70;;;;;;4986468;28;20397;-43
2021/01/05 01:51:52;;;;;;;12.38;9.82;;;3.40;94.70;;;;;;4987069;28;20030;-42
2021/01/05 01:54:36;;;;;;;13.18;10.10;;;3.40;94.70;;;;;;4986898;28;20119;-42
2021/01/05 01:57:36;;;;;;;12.07;9.50;;;3.50;94.50;;;;;;4986640;28;20081;-42
2021/01/05 02:00:23;;;;;;;12.55;9.70;;;3.50;94.50;;;;;;4986924;28;20800;-43
2021/01/05 02:03:16;;;;;;;13.40;9.98;;;3.50;94.50;;;;;;4986868;28;20268;-43
2021/01/05 02:05:53;;;;;;;11.93;9.65;;;3.50;94.50;;;;;;4986198;28;20117;-43
2021/01/05 02:08:33;;;;;;;10.65;9.13;;;3.50;94.50;;;;;;4986484;28;20066;-43
2021/01/05 02:11:19;;;;;;;13.07;10.45;;;3.50;94.50;;;;;;4986624;28;20393;-42
2021/01/05 02:14:03;;;;;;;11.98;8.93;;;3.50;94.50;;;;;;4986438;28;20027;-42
2021/01/05 02:16:41;;;;;;;12.93;9.90;;;3.50;94.60;;;;;;4986549;28;20035;-42
2021/01/05 02:19:36;;;;;;;11.38;9.65;;;3.40;94.60;;;;;;4986704;28;20033;-43
2021/01/05 02:22:33;;;;;;;13.27;10.10;;;3.50;94.70;;;;;;4986475;28;20042;-43
2021/01/05 02:25:09;;;;;;;11.70;9.15;;;3.50;94.70;;;;;;4940479;28;20092;-43
2021/01/05 02:27:48;;;;;;;12.52;9.93;;;3.50;94.70;;;;;;4986569;28;20114;-43
2021/01/05 02:30:18;;;;;;;14.40;11.07;;;3.50;94.70;;;;;;4986528;28;20045;-43
2021/01/05 02:33:16;;;;;;;13.40;10.68;;;3.50;94.70;;;;;;4986647;28;20030;-44
2021/01/05 02:36:06;;;;;;;15.63;11.27;;;3.50;94.70;;;;;;4982119;28;20046;-43
2021/01/05 02:38:59;;;;;;;16.13;10.95;;;3.50;94.70;;;;;;4986097;28;20031;-43
2021/01/05 02:41:52;;;;;;;13.13;10.05;;;3.50;94.60;;;;;;4986590;28;20034;-42
2021/01/05 02:44:44;;;;;;;13.55;10.48;;;3.50;94.70;;;;;;4986415;28;20022;-43
2021/01/05 02:47:35;;;;;;;16.75;10.85;;;3.50;94.70;;;;;;4986526;28;20023;-43
2021/01/05 02:50:09;;;;;;;13.52;10.63;;;3.50;94.70;;;;;;4989827;28;20042;-44
2021/01/05 02:53:21;;;;;;;16.98;11.68;;;3.50;94.60;;;;;;4989973;28;20034;-44
2021/01/05 02:56:36;;;;;;;12.88;9.73;;;3.50;94.70;;;;;;4990569;28;20030;-42
2021/01/05 02:59:17;;;;;;;12.57;10.05;;;3.50;94.60;;;;;;4990273;28;20053;-44
2021/01/05 03:02:12;;;;;;;13.93;10.45;;;3.50;94.60;;;;;;4989956;28;20065;-42
2021/01/05 03:04:37;;;;;;;14.23;10.68;;;3.50;94.60;;;;;;4990058;28;20062;-43
2021/01/05 03:07:11;;;;;;;13.35;10.52;;;3.50;94.60;;;;;;4989952;28;20069;-42
2021/01/05 03:10:11;;;;;;;15.30;11.00;;;3.50;94.60;;;;;;4989316;28;20121;-42
2021/01/05 03:12:54;;;;;;;15.23;11.63;;;3.50;94.50;;;;;;4992531;28;20022;-42
2021/01/05 03:15:38;;;;;;;13.70;10.05;;;3.50;94.40;;;;;;4988965;28;20034;-42
2021/01/05 03:18:15;;;;;;;14.35;11.43;;;3.50;94.40;;;;;;5000468;28;20084;-42
2021/01/05 03:20:47;;;;;;;15.65;11.43;;;3.50;94.40;;;;;;5009406;28;20030;-42
2021/01/05 03:23:14;;;;;;;17.77;12.00;;;3.50;94.40;;;;;;5008662;28;20030;-43
2021/01/05 03:25:46;;;;;;;16.25;11.93;;;3.50;94.40;;;;;;5009632;28;20268;-43
2021/01/05 03:28:17;;;;;;;16.67;11.50;;;3.50;94.40;;;;;;5008227;28;20034;-43
2021/01/05 03:30:56;;;;;;;18.48;12.90;;;3.50;94.30;;;;;;5009155;28;20029;-43
2021/01/05 03:33:21;;;;;;;15.27;11.68;;;3.50;94.40;;;;;;5009086;28;20040;-44
2021/01/05 03:35:47;;;;;;;14.00;11.23;;;3.50;94.40;;;;;;5008673;28;20470;-42
2021/01/05 03:38:13;;;;;;;14.50;11.18;;;3.50;94.50;;;;;;5008485;28;20026;-43
2021/01/05 03:40:38;;;;;;;15.75;11.80;;;3.50;94.50;;;;;;5002118;28;20109;-42
2021/01/05 03:43:04;;;;;;;16.90;12.60;;;3.50;94.50;;;;;;4995089;28;20419;-43
2021/01/05 03:45:31;;;;;;;14.90;11.50;;;3.50;94.50;;;;;;4997208;28;20069;-43
2021/01/05 03:47:57;;;;;;;17.63;12.45;;;3.50;94.50;;;;;;4989251;28;20033;-42
2021/01/05 03:50:23;;;;;;;18.35;12.65;;;3.50;94.50;;;;;;5004268;28;20042;-42
2021/01/05 03:52:49;;;;;;;16.40;11.85;;;3.50;94.50;;;;;;5008645;28;20053;-43
2021/01/05 03:55:16;;;;;;;13.95;11.30;;;3.50;94.60;;;;;;5008125;28;20109;-42
2021/01/05 03:57:42;;;;;;;18.58;13.45;;;3.50;94.60;;;;;;4995136;28;20057;-42
2021/01/05 04:00:12;;;;;;;18.52;13.57;;;3.50;94.60;;;;;;4988118;28;20517;-43
2021/01/05 04:02:38;;;;;;;17.50;13.02;;;3.50;94.60;;;;;;4988700;28;20145;-43
2021/01/05 04:05:04;;;;;;;17.38;12.20;;;3.50;94.70;;;;;;4988838;28;20030;-42
2021/01/05 04:07:30;;;;;;;20.08;14.25;;;3.50;94.70;;;;;;4988099;28;20450;-44
2021/01/05 04:09:55;;;;;;;16.25;12.48;;;3.50;94.80;;;;;;4988911;28;20125;-43
2021/01/05 04:12:20;;;;;;;15.60;11.95;;;3.50;94.80;;;;;;4987219;28;20034;-43
2021/01/05 04:14:46;;;;;;;17.88;12.80;;;3.50;94.80;;;;;;4988027;28;20097;-43
2021/01/05 04:17:12;;;;;;;19.17;13.43;;;3.50;94.80;;;;;;4987759;28;20030;-43
2021/01/05 04:19:38;;;;;;;18.27;12.88;;;3.60;94.80;;;;;;4988748;28;20030;-44
2021/01/05 04:22:04;;;;;;;21.50;13.90;;;3.50;94.80;;;;;;4988529;28;20656;-43
2021/01/05 04:24:29;;;;;;;18.42;13.27;;;3.50;94.80;;;;;;4988357;28;20466;-43
2021/01/05 04:26:55;;;;;;;18.77;12.95;;;3.50;94.80;;;;;;4998784;28;20034;-44
2021/01/05 04:29:20;;;;;;;21.50;13.77;;;3.50;94.80;;;;;;4987706;28;20034;-42
2021/01/05 04:31:46;;;;;;;17.55;12.55;;;3.50;94.90;;;;;;4988092;28;20078;-43
2021/01/05 04:34:14;;;;;;;19.60;13.57;;;3.50;94.90;;;;;;4988045;28;20485;-44
2021/01/05 04:36:40;;;;;;;19.05;13.10;;;3.50;94.90;;;;;;4988132;28;20093;-44
2021/01/05 04:39:07;;;;;;;20.80;14.10;;;3.60;95.00;;;;;;4987841;28;20042;-43
2021/01/05 04:41:59;;;;;;;19.98;13.65;;;3.60;95.00;;;;;;4987447;28;20058;-43
2021/01/05 04:44:28;;;;;;;18.27;12.80;;;3.60;95.00;;;;;;4987204;28;20137;-43
2021/01/05 04:47:21;;;;;;;18.75;13.25;;;3.60;95.00;;;;;;4987101;28;20522;-42
2021/01/05 04:50:06;;;;;;;19.38;14.18;;;3.50;95.00;;;;;;4945523;28;20042;-44
2021/01/05 04:52:39;;;;;;;25.77;16.58;;;3.50;95.00;;;;;;4987148;28;20096;-44
2021/01/05 04:55:18;;;;;;;24.98;16.17;;;3.50;95.10;;;;;;4988065;28;20374;-44
2021/01/05 04:57:46;;;;;;;21.52;13.88;;;3.50;95.10;;;;;;4987617;28;20049;-43
2021/01/05 05:00:28;;;;;;;22.77;15.75;;;3.50;95.10;;;;;;4986622;28;20056;-43
2021/01/05 05:02:56;;;;;;;24.10;15.82;;;3.50;95.20;;;;;;4987620;28;20022;-43
2021/01/05 05:05:24;;;;;;;20.67;14.45;;;3.50;95.20;;;;;;4986934;28;20501;-43
2021/01/05 05:08:13;;;;;;;21.17;14.20;;;3.50;95.20;;;;;;4987073;28;20061;-42
2021/01/05 05:10:48;;;;;;;23.20;14.30;;;3.50;95.30;;;;;;4973781;28;20046;-42
2021/01/05 05:13:40;;;;;;;21.10;15.18;;;3.50;95.30;;;;;;4986776;28;20022;-42
2021/01/05 05:16:37;;;;;;;18.20;13.13;;;3.50;95.20;;;;;;4987194;28;20648;-43
2021/01/05 05:19:21;;;;;;;22.17;14.18;;;3.50;95.30;;;;;;4987269;28;20038;-44
2021/01/05 05:21:52;;;;;;;20.63;14.57;;;3.50;95.10;;;;;;4987188;28;20022;-43
2021/01/05 05:24:34;;;;;;;18.25;12.98;;;3.50;95.10;;;;;;4987142;28;20034;-44
2021/01/05 05:27:14;;;;;;;18.55;13.52;;;3.60;95.10;;;;;;4986916;28;20037;-42
2021/01/05 05:29:58;;;;;;;18.13;12.93;;;3.50;95.00;;;;;;4986608;28;20026;-43
2021/01/05 05:32:34;;;;;;;20.13;14.55;;;3.50;95.00;;;;;;4986459;28;20169;-43
2021/01/05 05:35:02;;;;;;;19.15;14.15;;;3.60;95.10;;;;;;4987018;28;20033;-43
2021/01/05 05:38:02;;;;;;;22.90;15.55;;;3.60;95.00;;;;;;4986201;28;20027;-42
2021/01/05 05:40:36;;;;;;;19.73;13.40;;;3.60;95.10;;;;;;4986401;28;20035;-43
2021/01/05 05:43:13;;;;;;;19.02;14.43;;;3.50;95.00;;;;;;4990721;28;20027;-43
2021/01/05 05:45:47;;;;;;;19.90;14.60;;;3.50;95.10;;;;;;4992355;28;20576;-43
2021/01/05 05:48:51;;;;;;;18.80;13.10;;;3.50;95.00;;;;;;4986393;28;20500;-43
2021/01/05 05:51:28;;;;;;;21.08;13.93;;;3.50;95.10;;;;;;4986305;28;20045;-44
2021/01/05 05:54:00;;;;;;;18.10;12.93;;;3.50;95.10;;;;;;4986692;28;20101;-43
2021/01/05 05:57:05;;;;;;;19.40;13.43;;;3.50;95.40;;;;;;4985556;28;20388;-43
2021/01/05 05:59:54;;;;;;;18.73;13.18;;;3.50;95.10;;;;;;4985784;28;20629;-43
2021/01/05 06:02:22;;;;;;;18.55;12.80;;;3.50;95.10;;;;;;4985930;28;20100;-43
2021/01/05 06:04:48;;;;;;;19.52;14.48;;;3.50;95.10;;;;;;4986195;28;20034;-43
2021/01/05 06:07:14;;;;;;;17.60;12.77;;;3.50;95.10;;;;;;4986409;28;20057;-43
2021/01/05 06:09:39;;;;;;;19.08;13.45;;;3.50;95.20;;;;;;4987006;28;20757;-43
2021/01/05 06:12:06;;;;;;;21.10;13.80;;;3.50;95.20;;;;;;4988089;28;20055;-42
2021/01/05 06:14:32;;;;;;;17.50;12.57;;;3.60;95.20;;;;;;4998042;28;20041;-43
2021/01/05 06:16:57;;;;;;;16.85;12.65;;;3.60;95.10;;;;;;4993555;28;20018;-43
2021/01/05 06:19:23;;;;;;;20.25;14.07;;;3.60;95.20;;;;;;4990101;28;20038;-42
2021/01/05 06:21:48;;;;;;;19.92;14.05;;;3.60;95.20;;;;;;4993153;28;20023;-42
2021/01/05 06:24:14;;;;;;;19.65;13.82;;;3.60;95.10;;;;;;4988834;28;20508;-43
2021/01/05 06:26:39;;;;;;;18.00;13.35;;;3.60;95.00;;;;;;4997661;28;20136;-42
2021/01/05 06:29:05;;;;;;;21.75;13.88;;;3.60;95.00;;;;;;5003268;28;20132;-42
2021/01/05 06:31:30;;;;;;;20.40;13.95;;;3.60;95.00;;;;;;4994518;28;20065;-43
2021/01/05 06:33:56;;;;;;;20.15;14.30;;;3.60;95.00;;;;;;4991724;28;20026;-44
2021/01/05 06:36:22;;;;;;;22.27;14.70;;;3.60;95.00;;;;;;4996624;28;20036;-43
2021/01/05 06:38:48;;;;;;;18.55;13.50;;;3.60;95.00;;;;;;4991002;28;20428;-43
2021/01/05 06:41:13;;;;;;;19.92;14.27;;;3.60;95.00;;;;;;5000639;28;20030;-43
2021/01/05 06:43:39;;;;;;;21.23;15.70;;;3.70;95.10;;;;;;5009900;28;20026;-42
2021/01/05 06:46:04;;;;;;;21.77;14.90;;;3.70;95.00;;;;;;4997421;28;20094;-43
2021/01/05 06:48:30;;;;;;;22.33;15.68;;;3.70;94.90;;;;;;4997167;28;20046;-42
2021/01/05 06:50:55;;;;;;;23.48;15.98;;;3.70;94.90;;;;;;4991721;28;20596;-42
2021/01/05 06:53:21;;;;;;;20.52;14.88;;;3.70;94.80;;;;;;4994960;28;20025;-43
2021/01/05 06:55:46;;;;;;;21.58;14.02;;;3.70;94.80;;;;;;4995318;28;20026;-43
2021/01/05 06:58:12;;;;;;;18.90;13.02;;;3.70;94.90;;;;;;4993929;28;20049;-43
2021/01/05 07:00:37;;;;;;;24.83;16.17;;;3.70;95.20;;;;;;4986894;28;20085;-43
2021/01/05 07:03:04;;;;;;;21.25;14.25;;;3.60;95.10;;;;;;4990618;28;20033;-44
2021/01/05 07:05:29;;;;;;;24.05;15.10;;;3.70;94.80;;;;;;4987833;28;20573;-43
2021/01/05 07:07:55;;;;;;;21.33;15.18;;;3.70;94.80;;;;;;4986287;28;20030;-43
2021/01/05 07:10:21;;;;;;;24.85;16.13;;;3.70;94.80;;;;;;4986195;28;20097;-43
2021/01/05 07:12:47;;;;;;;21.95;14.57;;;3.70;94.90;;;;;;4987650;28;20161;-42
2021/01/05 07:15:15;;;;;;;21.95;15.00;;;3.70;94.90;;;;;;4986410;28;20121;-43
2021/01/05 07:17:40;;;;;;;22.48;14.95;;;3.70;94.90;;;;;;4987443;28;20080;-43
2021/01/05 07:20:10;;;;;;;21.35;14.82;;;3.70;94.80;;;;;;4984852;28;20026;-42
2021/01/05 07:22:35;;;;;;;24.15;16.70;;;3.70;94.80;;;;;;4999395;28;20113;-41
2021/01/05 07:25:01;;;;;;;26.33;15.88;;;3.70;94.80;;;;;;4995310;28;20024;-43
2021/01/05 07:27:27;;;;;;;24.63;16.80;;;3.70;94.90;;;;;;4999661;28;20030;-43
2021/01/05 07:29:53;;;;;;;22.58;15.52;;;3.70;94.90;;;;;;4995823;28;20406;-44
2021/01/05 07:32:19;;;;;;;23.13;15.10;;;3.70;94.90;;;;;;4994469;28;20409;-44
2021/01/05 07:34:44;;;;;;;22.70;14.95;;;3.70;94.90;;;;;;4997059;28;20097;-44
2021/01/05 07:37:16;;;;;;;25.88;15.82;;;3.70;95.00;;;;;;4995461;28;20809;-43
2021/01/05 07:39:41;;;;;;;22.33;15.85;;;3.70;95.00;;;;;;5003560;28;20057;-42
2021/01/05 07:42:15;;;;;;;25.05;16.27;;;3.70;94.90;;;;;;5008819;28;20064;-43
2021/01/05 07:44:41;;;;;;;22.60;15.48;;;3.80;94.90;;;;;;5008782;28;20030;-44
2021/01/05 07:47:07;;;;;;;25.05;15.85;;;3.70;94.90;;;;;;5009112;28;20390;-44
2021/01/05 07:49:33;;;;;;;25.77;16.73;;;3.70;94.90;;;;;;5008129;28;20485;-43
2021/01/05 07:51:58;;;;;;;24.77;16.17;;;3.80;94.90;;;;;;5009166;28;20512;-45
2021/01/05 07:54:24;;;;;;;21.83;14.70;;;3.70;94.90;;;;;;5008092;28;20033;-43
2021/01/05 07:56:49;;;;;;;19.98;13.60;;;3.80;95.00;;;;;;5008660;28;20553;-42
2021/01/05 07:59:18;;;;;;;23.55;14.80;;;3.80;95.00;;;;;;5006487;28;20729;-41
2021/01/05 08:01:44;;;;;;;24.83;16.42;;;3.80;95.00;;;;;;5007974;28;20040;-44
2021/01/05 08:04:09;;;;;;;24.42;15.75;;;3.80;95.00;;;;;;5007848;28;20124;-43
2021/01/05 08:06:40;;;;;;;23.48;15.90;;;3.80;95.00;;;;;;5008665;28;20114;-43
2021/01/05 08:09:05;;;;;;;26.33;17.35;;;3.80;95.00;;;;;;5008449;28;20115;-44
2021/01/05 08:11:36;;;;;;;25.13;17.23;;;3.80;95.00;;;;;;5007355;28;20029;-44
2021/01/05 08:14:02;;;;;;;24.67;16.65;;;3.80;95.00;;;;;;5008428;28;20165;-43
2021/01/05 08:16:28;;;;;;;24.10;16.13;;;3.80;94.90;;;;;;5007579;28;20033;-43
2021/01/05 08:18:53;;;;;;;22.48;15.15;;;3.80;94.90;;;;;;5008249;28;20362;-43
2021/01/05 08:21:23;;;;;;;24.80;17.20;;;3.80;95.00;;;;;;5008096;28;20032;-43
2021/01/05 08:23:48;;;;;;;21.70;15.40;;;3.80;95.00;;;;;;5007858;28;20037;-43
2021/01/05 08:26:14;;;;;;;24.48;15.75;;;3.80;94.90;;;;;;5007728;28;20060;-43
2021/01/05 08:28:39;;;;;;;21.98;16.10;;;3.90;94.90;;;;;;5007857;28;20402;-43
2021/01/05 08:31:05;;;;;;;22.77;16.25;;;3.80;94.90;;;;;;5007685;28;20026;-43
2021/01/05 08:33:31;;;;;;;23.92;16.27;;;3.90;94.90;;;;;;5008134;28;20038;-42
2021/01/05 08:35:57;;;;;;;28.10;17.45;;;3.90;94.80;;;;;;5008390;28;20014;-42
2021/01/05 08:38:22;;;;;;;26.55;17.33;;;3.90;94.70;;;;;;5007374;28;20032;-44
2021/01/05 08:40:48;;;;;;;30.70;17.90;;;3.90;94.70;;;;;;5007897;28;20193;-44
2021/01/05 08:43:13;;;;;;;24.05;15.95;;;3.90;94.60;;;;;;5007187;28;20034;-42
2021/01/05 08:45:40;;;;;;;26.40;16.70;;;3.90;94.60;;;;;;5007365;28;20025;-47
2021/01/05 08:48:06;;;;;;;24.13;15.40;;;3.90;94.60;;;;;;5007935;28;20409;-44
2021/01/05 08:50:32;;;;;;;22.75;15.40;;;3.90;94.60;;;;;;5007052;28;20044;-41
2021/01/05 08:53:00;;;;;;;25.35;15.50;;;3.90;94.50;;;;;;5007389;28;20565;-43
2021/01/05 08:55:27;;;;;;;25.10;16.48;;;3.90;94.60;;;;;;5006777;28;20473;-43
2021/01/05 08:57:53;;;;;;;21.92;15.98;;;3.90;94.50;;;;;;5007756;28;20550;-42
2021/01/05 09:00:19;;;;;;;21.40;15.20;;;3.90;94.40;;;;;;5006619;28;20524;-43
2021/01/05 09:02:45;;;;;;;20.80;14.25;;;3.90;94.30;;;;;;5007385;28;20029;-42
2021/01/05 09:05:11;;;;;;;18.83;14.05;;;3.90;94.20;;;;;;5007085;28;20026;-43
2021/01/05 09:07:37;;;;;;;20.20;14.77;;;3.90;94.30;;;;;;5001299;28;20026;-43
2021/01/05 09:10:06;;;;;;;19.15;14.57;;;4.00;94.20;;;;;;5004496;28;20100;-43
2021/01/05 09:12:34;;;;;;;20.52;14.98;;;4.00;94.20;;;;;;5006949;28;20041;-45
2021/01/05 09:15:00;;;;;;;21.25;15.02;;;4.00;94.10;;;;;;5007802;28;20114;-42
2021/01/05 09:17:25;;;;;;;22.20;15.05;;;4.00;94.10;;;;;;5006420;28;20021;-43
2021/01/05 09:19:51;;;;;;;21.67;15.55;;;4.00;94.00;;;;;;5004753;28;20034;-44
2021/01/05 09:22:24;;;;;;;21.08;14.50;;;4.00;94.00;;;;;;5006949;28;20034;-43
2021/01/05 09:24:50;;;;;;;;;;;4.00;94.10;;;;;;5004734;28;20029;-43
2021/01/05 09:27:16;;;;;;;20.23;14.05;;;4.00;94.00;;;;;;4994216;28;19921;-44
2021/01/05 09:29:42;;;;;;;21.95;15.27;;;4.10;93.90;;;;;;4999391;28;20040;-43
2021/01/05 09:32:08;;;;;;;20.55;14.80;;;4.00;94.00;;;;;;5007684;28;20021;-44
2021/01/05 09:34:33;;;;;;;18.67;13.65;;;4.10;93.90;;;;;;5006667;28;20421;-43
2021/01/05 09:36:59;;;;;;;21.38;14.95;;;4.10;93.90;;;;;;5007321;28;20022;-43
2021/01/05 09:39:24;;;;;;;20.92;15.23;;;4.10;93.90;;;;;;5006578;28;20113;-43
2021/01/05 09:41:57;;;;;;;21.15;14.60;;;4.10;93.80;;;;;;5007089;28;20716;-43
2021/01/05 09:44:23;;;;;;;;;;;4.10;93.70;;;;;;5001559;28;20037;-44
2021/01/05 09:46:51;;;;;;;17.90;12.50;;;4.20;93.50;;;;;;4996038;28;19913;-43
2021/01/05 09:49:17;;;;;;;15.85;11.90;;;4.10;93.30;;;;;;4995174;28;20081;-43
2021/01/05 09:51:42;;;;;;;18.63;12.90;;;4.10;93.30;;;;;;4998328;28;20621;-43
2021/01/05 09:54:08;;;;;;;15.55;12.35;;;4.10;93.30;;;;;;5002738;28;20038;-44
2021/01/05 09:56:34;;;;;;;17.80;13.32;;;4.20;93.20;;;;;;5006155;28;20481;-44
2021/01/05 09:58:59;;;;;;;14.60;11.45;;;4.20;93.30;;;;;;5006376;28;20030;-43
2021/01/05 10:01:31;;;;;;;13.32;10.60;;;4.10;93.20;;;;;;5006221;28;20760;-43
2021/01/05 10:03:57;;;;;;;13.75;10.63;;;4.10;93.00;;;;;;5006464;28;20025;-44
2021/01/05 10:06:31;;;;;;;12.27;9.77;;;4.20;93.00;;;;;;5006323;28;20487;-44
2021/01/05 10:08:57;;;;;;;14.68;11.43;;;4.10;93.10;;;;;;5006645;28;20026;-44
2021/01/05 10:11:28;;;;;;;15.60;11.90;;;4.20;93.10;;;;;;5006833;28;20528;-44
2021/01/05 10:13:54;;;;;;;13.90;10.63;;;4.20;92.90;;;;;;5003937;28;20030;-45
2021/01/05 10:16:19;;;;;;;12.90;10.07;;;4.20;92.90;;;;;;4995224;28;20032;-43
2021/01/05 10:18:45;;;;;;;13.75;11.18;;;4.20;92.90;;;;;;4997159;28;20048;-43
2021/01/05 10:21:10;;;;;;;13.98;11.50;;;4.20;92.90;;;;;;4987233;28;20590;-44
2021/01/05 10:23:36;;;;;;;14.43;11.50;;;4.20;92.80;;;;;;4995978;28;20481;-43
2021/01/05 10:26:01;;;;;;;13.07;11.02;;;4.20;92.80;;;;;;5001436;28;20026;-43
2021/01/05 10:28:27;;;;;;;14.23;11.65;;;4.20;92.80;;;;;;4988021;28;20096;-44
2021/01/05 10:30:52;;;;;;;16.27;11.50;;;4.20;92.70;;;;;;5001791;28;20022;-43
2021/01/05 10:33:18;;;;;;;15.25;12.15;;;4.20;92.70;;;;;;4996581;28;20095;-44
2021/01/05 10:35:43;;;;;;;15.38;11.85;;;4.20;92.70;;;;;;4991885;28;20081;-43
2021/01/05 10:38:09;;;;;;;14.98;11.88;;;4.20;92.70;;;;;;4986691;28;20113;-43
2021/01/05 10:40:34;;;;;;;15.23;12.00;;;4.20;92.80;;;;;;4999886;28;20474;-42
2021/01/05 10:43:00;;;;;;;13.10;10.82;;;4.20;92.80;;;;;;5000157;28;20030;-42
2021/01/05 10:45:26;;;;;;;14.65;11.95;;;4.20;92.80;;;;;;5003751;28;20018;-42
2021/01/05 10:47:52;;;;;;;13.63;11.18;;;4.20;92.80;;;;;;4996305;28;20026;-43
2021/01/05 10:50:22;;;;;;;14.23;11.07;;;4.20;92.80;;;;;;4996642;28;20049;-43
2021/01/05 10:52:48;;;;;;;15.10;11.90;;;4.30;92.80;;;;;;4994358;28;20029;-44
2021/01/05 10:55:17;;;;;;;13.20;11.25;;;4.30;92.80;;;;;;4986796;28;20077;-44
2021/01/05 10:57:42;;;;;;;14.50;11.25;;;4.30;92.80;;;;;;4992172;28;20038;-43
2021/01/05 11:00:09;;;;;;;14.52;11.73;;;4.40;92.80;;;;;;4995208;28;20046;-43
2021/01/05 11:02:35;;;;;;;16.42;12.52;;;4.40;92.70;;;;;;4996687;28;20756;-43
2021/01/05 11:05:00;;;;;;;16.42;11.63;;;4.40;92.90;;;;;;4999252;28;20026;-42
2021/01/05 11:07:26;;;;;;;15.85;12.82;;;4.40;92.60;;;;;;5005807;28;20026;-43
2021/01/05 11:09:52;;;;;;;14.57;11.20;;;4.40;92.60;;;;;;5009011;28;20037;-42
2021/01/05 11:12:25;;;;;;;15.35;12.68;;;4.40;92.60;;;;;;5009146;28;20022;-40
2021/01/05 11:14:51;;;;;;;14.60;11.68;;;4.40;92.70;;;;;;5009505;28;20113;-43
2021/01/05 11:17:17;;;;;;;17.48;13.32;;;4.40;92.70;;;;;;5009062;28;20101;-44
2021/01/05 11:19:43;;;;;;;17.05;13.77;;;4.40;92.70;;;;;;5009198;28;20034;-42
2021/01/05 11:22:14;;;;;;;15.75;13.52;;;4.40;92.70;;;;;;5007929;28;20033;-45
2021/01/05 11:24:40;;;;;;;18.08;13.00;;;4.40;92.70;;;;;;5009817;28;20022;-44
2021/01/05 11:27:07;;;;;;;16.83;12.95;;;4.40;92.70;;;;;;5009025;28;20497;-45
2021/01/05 11:29:33;;;;;;;17.05;13.20;;;4.40;92.80;;;;;;5004250;28;20065;-42
2021/01/05 11:32:05;;;;;;;19.02;14.60;;;4.40;92.70;;;;;;4999444;28;20023;-42
2021/01/05 11:34:31;;;;;;;21.58;15.52;;;4.40;92.70;;;;;;4998560;28;20025;-42
2021/01/05 11:37:04;;;;;;;22.58;15.63;;;4.40;92.80;;;;;;4998769;28;20064;-42
2021/01/05 11:39:29;;;;;;;19.95;14.13;;;4.40;92.80;;;;;;4997960;28;20125;-43
2021/01/05 11:42:03;;;;;;;18.52;14.02;;;4.40;92.90;;;;;;4998331;28;20113;-43
2021/01/05 11:44:29;;;;;;;21.70;16.15;;;4.40;93.00;;;;;;4997728;28;20490;-45
2021/01/05 11:46:55;;;;;;;24.33;16.60;;;4.40;93.10;;;;;;4999490;28;20152;-42
2021/01/05 11:49:21;;;;;;;24.98;16.75;;;4.40;93.10;;;;;;4998895;28;20038;-43
2021/01/05 11:51:50;;;;;;;22.60;16.20;;;4.40;93.10;;;;;;4988944;28;20533;-42
2021/01/05 11:54:15;;;;;;;28.25;17.50;;;4.40;93.10;;;;;;4988481;28;20023;-43
2021/01/05 11:56:41;;;;;;;22.88;16.52;;;4.40;93.20;;;;;;4988757;28;20038;-43
2021/01/05 11:59:06;;;;;;;22.77;17.02;;;4.40;93.20;;;;;;4988676;28;20037;-43
2021/01/05 12:01:36;;;;;;;27.90;18.73;;;4.40;93.20;;;;;;4988313;28;20607;-43
2021/01/05 12:04:06;;;;;;;25.42;17.88;;;4.40;93.30;;;;;;4989707;28;20528;-43
2021/01/05 12:06:32;;;;;;;26.00;19.02;;;4.40;93.30;;;;;;4989175;28;20080;-43
2021/01/05 12:08:58;;;;;;;25.25;18.08;;;4.40;93.40;;;;;;4989327;28;20038;-44
2021/01/05 12:11:25;;;;;;;28.27;19.60;;;4.40;93.50;;;;;;4988953;28;20030;-43
2021/01/05 12:13:51;;;;;;;26.02;18.33;;;4.40;93.60;;;;;;4989608;28;20050;-43
2021/01/05 12:16:31;;;;;;;26.88;18.55;;;4.40;93.60;;;;;;4988727;28;20380;-43
2021/01/05 12:18:59;;;;;;;28.27;19.83;;;4.40;93.60;;;;;;4989205;28;20096;-43
2021/01/05 12:21:37;;;;;;;24.02;18.33;;;4.40;93.60;;;;;;4989250;28;20033;-43
2021/01/05 12:24:04;;;;;;;23.50;17.50;;;4.40;93.60;;;;;;5001888;28;20789;-43
2021/01/05 12:26:37;;;;;;;28.95;18.30;;;4.30;93.70;;;;;;5007927;28;20522;-43
2021/01/05 12:29:06;;;;;;;26.40;18.92;;;4.40;93.80;;;;;;5008694;28;20397;-43
2021/01/05 12:31:38;;;;;;;25.35;18.20;;;4.40;93.70;;;;;;5005182;28;20255;-44
2021/01/05 12:34:03;;;;;;;26.15;18.40;;;4.40;93.70;;;;;;5008693;28;20586;-43
2021/01/05 12:36:33;;;;;;;24.60;18.05;;;4.40;93.60;;;;;;4989767;28;20058;-44
2021/01/05 12:38:59;;;;;;;28.88;19.27;;;4.40;93.60;;;;;;4998137;28;20034;-42
2021/01/05 12:41:33;;;;;;;23.55;17.30;;;4.40;93.60;;;;;;5007467;28;20591;-43
2021/01/05 12:44:00;;;;;;;24.63;18.33;;;4.40;93.40;;;;;;5008308;28;20030;-44
2021/01/05 12:46:28;;;;;;;25.33;18.67;;;4.40;93.50;;;;;;5007562;28;20537;-43
2021/01/05 12:48:53;;;;;;;25.10;18.30;;;4.40;93.50;;;;;;5008084;28;20037;-43
2021/01/05 12:51:33;;;;;;;22.75;17.08;;;4.40;93.50;;;;;;5007384;28;20111;-47
2021/01/05 12:53:59;;;;;;;24.33;15.93;;;4.40;93.50;;;;;;5008183;28;20037;-43